Time;durP1;ratioP1;P1;durP2;ratioP2;P2;SDS_P1;SDS_P2;PMS_P1;PMS_P2;Temp;Humidity;BMP_temperature;BMP_pressure;BME280_temperature;BME280_humidity;BME280_pressure;Samples;Min_cycle;Max_cycle;Signal;HPM_P1;HPM_P2
2022/03/11 00:01:36;;;;;;;13.23;6.93;;;;;;;4.13;54.66;101674.63;5044768;23;20041;-96
2022/03/11 00:04:02;;;;;;;14.40;6.93;;;;;;;4.13;55.44;101679.13;5015590;28;20034;-95
2022/03/11 00:06:36;;;;;;;13.83;6.67;;;;;;;4.07;55.30;101662.16;5015850;28;20323;-94
2022/03/11 00:09:02;;;;;;;13.45;6.50;;;;;;;4.06;55.26;101677.22;5015741;28;20032;-95
2022/03/11 00:11:28;;;;;;;15.93;7.22;;;;;;;3.95;56.10;101659.19;5019576;23;20042;-96
2022/03/11 00:14:00;;;;;;;12.10;6.37;;;;;;;3.90;55.73;101670.41;5025540;28;20055;-96
2022/03/11 00:16:26;;;;;;;14.35;6.10;;;;;;;3.90;56.45;101667.75;5034558;28;20055;-95
2022/03/11 00:19:02;;;;;;;19.23;7.20;;;;;;;3.77;55.90;101655.19;5034839;28;20021;-96
2022/03/11 00:21:49;;;;;;;;;;;;;;;;;;;;;
2022/03/11 00:24:24;;;;;;;16.10;6.25;;;;;;;3.93;55.60;101667.34;5014213;28;20037;-95
2022/03/11 00:26:55;;;;;;;13.15;6.18;;;;;;;3.83;55.81;101658.09;5015233;28;20033;-95
2022/03/11 00:29:25;;;;;;;13.52;6.75;;;;;;;3.84;56.26;101662.38;5015280;28;20033;-95
2022/03/11 00:32:05;;;;;;;15.07;6.83;;;;;;;3.76;56.56;101655.38;4997546;28;20396;-96
2022/03/11 00:34:36;;;;;;;12.73;6.30;;;;;;;3.76;56.21;101658.03;5015031;28;20280;-95
2022/03/11 00:37:03;;;;;;;13.55;6.45;;;;;;;3.71;55.88;101650.66;5017172;28;20085;-96
2022/03/11 00:39:28;;;;;;;12.40;6.40;;;;;;;3.83;56.64;101661.56;5016358;28;20029;-96
2022/03/11 00:42:10;;;;;;;20.83;6.90;;;;;;;3.76;56.36;101655.38;5014575;28;20032;-96
2022/03/11 00:44:46;;;;;;;;;;;;;;;;;;;;;
2022/03/11 00:47:18;;;;;;;15.50;6.97;;;;;;;3.79;56.28;101650.53;5011894;28;20038;-96
2022/03/11 00:49:47;;;;;;;11.93;5.95;;;;;;;3.75;56.12;101645.78;5016692;28;20092;-96
2022/03/11 00:52:18;;;;;;;16.33;7.05;;;;;;;3.77;56.44;101655.19;5000186;28;20541;-96
2022/03/11 00:54:53;;;;;;;15.40;7.50;;;;;;;3.79;56.28;101650.53;5016834;28;20057;-95
2022/03/11 00:57:29;;;;;;;15.23;7.38;;;;;;;3.70;56.00;101630.44;4999437;28;20084;-95
2022/03/11 01:00:19;;;;;;;16.38;7.88;;;;;;;3.70;55.96;101634.94;5022190;28;20068;-96
2022/03/11 01:02:51;;;;;;;14.68;6.22;;;;;;;3.70;57.65;101641.06;5035203;28;20044;-95
2022/03/11 01:05:22;;;;;;;16.70;6.53;;;;;;;3.70;55.96;101645.56;5033174;28;20030;-95
2022/03/11 01:07:57;;;;;;;15.10;6.70;;;;;;;3.57;56.73;101625.06;5012325;28;20285;-96
2022/03/11 01:10:29;;;;;;;13.68;6.60;;;;;;;3.49;55.82;101618.88;5014475;28;20018;-96
2022/03/11 01:12:57;;;;;;;12.63;6.32;;;;;;;3.47;56.53;101623.53;5012476;28;20069;-96
2022/03/11 01:15:45;;;;;;;12.73;6.50;;;;;;;3.53;56.98;101626.44;4990108;28;20035;-94
2022/03/11 01:18:22;;;;;;;16.55;6.97;;;;;;;3.51;56.89;101608.09;5000385;28;20117;-94
2022/03/11 01:20:55;;;;;;;12.38;6.18;;;;;;;3.53;56.30;101614.03;5039849;23;20144;-94
2022/03/11 01:23:21;;;;;;;20.15;6.95;;;;;;;3.57;56.36;101614.44;5045534;28;20036;-94
2022/03/11 01:26:02;;;;;;;15.37;6.40;;;;;;;3.58;56.41;101624.03;5053479;28;20010;-96
2022/03/11 01:28:41;;;;;;;;;;;;;;;;;;;;;
2022/03/11 01:31:19;;;;;;;18.92;6.55;;;;;;;3.45;56.56;101592.94;5002609;28;20136;-96
2022/03/11 01:37:44;;;;;;;14.88;6.45;;;;;;;3.66;56.97;101615.94;5023320;28;20060;-96
2022/03/11 01:40:18;;;;;;;14.30;6.65;;;;;;;3.52;56.93;101579.75;5033226;28;20191;-96
2022/03/11 01:42:55;;;;;;;15.13;6.22;;;;;;;3.48;56.37;101593.38;4999987;28;20037;-96
2022/03/11 01:45:26;;;;;;;15.00;6.47;;;;;;;3.48;56.52;101587.28;5005063;28;20037;-94
2022/03/11 01:48:01;;;;;;;14.37;6.57;;;;;;;3.45;56.15;101580.53;4981434;28;20835;-94
2022/03/11 01:50:56;;;;;;;12.27;6.07;;;;;;;3.41;56.32;101573.97;4979412;28;21551;-95
2022/03/11 01:53:57;;;;;;;15.23;7.13;;;;;;;3.45;56.31;101569.94;4978221;28;20030;-95
2022/03/11 01:56:33;;;;;;;15.93;7.10;;;;;;;3.55;56.36;101584.66;4990035;28;20040;-95
2022/03/11 01:59:03;;;;;;;15.00;6.47;;;;;;;3.47;56.13;101557.28;4999514;28;20034;-94
2022/03/11 02:01:43;;;;;;;15.85;6.82;;;;;;;3.42;56.65;101553.56;5016600;28;20018;-96
2022/03/11 02:04:12;;;;;;;12.68;6.25;;;;;;;3.49;56.36;101563.22;5002138;28;20026;-95
2022/03/11 02:06:51;;;;;;;13.23;6.50;;;;;;;3.46;56.85;101542.44;5017242;28;20025;-94
2022/03/11 02:09:28;;;;;;;13.23;6.50;;;;;;;3.40;56.87;101532.59;5040586;28;20064;-95
2022/03/11 02:12:00;;;;;;;12.63;6.20;;;;;;;3.42;56.13;101538.50;5024039;28;20022;-95
2022/03/11 02:14:57;;;;;;;18.27;7.60;;;;;;;3.53;56.51;101546.94;5038213;28;20294;-96
2022/03/11 02:17:23;;;;;;;14.73;6.60;;;;;;;3.42;56.08;101530.56;5039710;28;20033;-95
2022/03/11 02:19:52;;;;;;;15.80;6.50;;;;;;;3.42;56.96;101538.50;5041211;28;20072;-96
2022/03/11 02:22:49;;;;;;;14.03;6.83;;;;;;;3.41;56.49;101526.28;5044144;28;20038;-95
2022/03/11 02:25:28;;;;;;;14.40;6.30;;;;;;;3.44;56.81;101527.72;5022692;28;20811;-95
2022/03/11 02:28:09;;;;;;;14.82;6.68;;;;;;;3.34;57.84;101525.41;4962164;28;20490;-96
2022/03/11 02:30:39;;;;;;;15.45;6.60;;;;;;;3.44;56.29;101525.06;4959738;28;20047;-95
2022/03/11 02:33:13;;;;;;;14.68;6.72;;;;;;;3.45;56.19;101519.59;4992317;28;20037;-96
2022/03/11 02:36:03;;;;;;;14.48;6.68;;;;;;;3.61;55.78;101517.66;5032019;28;20025;-96
2022/03/11 02:38:32;;;;;;;11.27;6.35;;;;;;;3.46;55.41;101496.53;5051062;28;20101;-94
2022/03/11 02:40:58;;;;;;;13.65;6.20;;;;;;;3.60;56.18;101518.66;5032176;28;20173;-96
2022/03/11 02:43:51;;;;;;;17.00;7.18;;;;;;;3.56;55.85;101514.75;5049013;28;20029;-94
2022/03/11 02:46:16;;;;;;;14.70;6.13;;;;;;;3.38;55.85;101494.88;5048331;28;20029;-96
2022/03/11 02:48:48;;;;;;;16.05;5.80;;;;;;;3.34;55.79;101493.59;5058559;28;20104;-96
2022/03/11 02:51:34;;;;;;;13.75;7.13;;;;;;;3.31;55.89;101500.13;5068711;28;20551;-96
2022/03/11 02:54:00;;;;;;;15.93;6.72;;;;;;;3.29;55.80;101498.66;5066050;28;20100;-96
2022/03/11 02:56:32;;;;;;;14.23;6.67;;;;;;;3.29;56.94;101503.94;5045143;28;20056;-96
2022/03/11 02:59:02;;;;;;;17.20;7.05;;;;;;;3.29;55.82;101488.88;5065683;28;20040;-95
2022/03/11 03:01:54;;;;;;;14.90;7.57;;;;;;;3.36;56.06;101506.69;5087473;22;20053;-95
2022/03/11 03:04:20;;;;;;;12.75;5.85;;;;;;;3.16;55.83;101479.00;5035441;28;20072;-95
2022/03/11 03:07:19;;;;;;;15.20;7.13;;;;;;;3.23;56.07;101489.66;5035933;28;20469;-95
2022/03/11 03:09:44;;;;;;;18.50;6.90;;;;;;;3.22;56.36;101484.56;5055686;28;20026;-94
2022/03/11 03:15:35;;;;;;;13.85;6.28;;;;;;;3.15;55.48;101487.97;5059416;28;20060;-96
2022/03/11 03:18:06;;;;;;;13.38;5.88;;;;;;;3.22;56.29;101503.09;5051540;28;20091;-96
2022/03/11 03:20:32;;;;;;;12.57;7.43;;;;;;;3.14;55.53;101494.28;5046352;28;20029;-95
2022/03/11 03:23:00;;;;;;;13.87;6.40;;;;;;;3.20;56.61;101491.88;5069388;23;20053;-96
2022/03/11 03:25:26;;;;;;;17.65;7.15;;;;;;;3.24;55.90;101493.13;5043539;28;20108;-95
2022/03/11 03:28:03;;;;;;;15.57;6.13;;;;;;;3.09;56.59;101483.44;5045187;28;20514;-96
2022/03/11 03:30:41;;;;;;;14.27;6.77;;;;;;;3.07;56.54;101484.63;5049341;28;20318;-96
2022/03/11 03:33:28;;;;;;;18.30;6.50;;;;;;;3.04;56.79;101483.19;5048211;28;20021;-96
2022/03/11 03:36:02;;;;;;;13.70;6.15;;;;;;;3.05;56.67;101481.34;5047699;28;20045;-96
2022/03/11 03:38:34;;;;;;;14.18;6.40;;;;;;;2.93;56.86;101478.41;5050014;28;20037;-95
2022/03/11 03:41:02;;;;;;;21.25;7.32;;;;;;;2.87;58.33;101474.69;5047095;28;20076;-95
2022/03/11 03:43:29;;;;;;;14.35;6.15;;;;;;;2.90;57.38;101484.09;5046253;28;20025;-95
2022/03/11 03:46:06;;;;;;;13.32;6.45;;;;;;;2.92;57.46;101490.03;5046705;28;20017;-96
2022/03/11 03:48:37;;;;;;;13.73;6.28;;;;;;;2.83;57.45;101479.56;5055830;28;20044;-95
2022/03/11 03:51:15;;;;;;;18.30;6.32;;;;;;;2.86;57.19;101475.69;5050927;28;20033;-94
2022/03/11 03:53:43;;;;;;;14.57;6.27;;;;;;;2.93;56.40;101484.53;5032274;28;20029;-95
2022/03/11 03:57:01;;;;;;;14.30;6.63;;;;;;;2.89;57.43;101485.91;5048578;28;20273;-96
2022/03/11 03:59:32;;;;;;;17.52;6.35;;;;;;;2.91;57.11;101480.44;5041870;28;20037;-96
2022/03/11 04:01:58;;;;;;;15.38;6.57;;;;;;;2.91;56.93;101468.00;5024879;28;20475;-95
2022/03/11 04:04:23;;;;;;;19.50;6.20;;;;;;;2.87;56.22;101467.59;5020879;28;20037;-95
2022/03/11 04:07:01;;;;;;;14.83;6.50;;;;;;;2.93;57.11;101476.59;5044795;28;20017;-96
2022/03/11 04:09:32;;;;;;;15.90;6.80;;;;;;;2.93;57.11;101475.75;5031964;28;20075;-96
2022/03/11 04:12:05;;;;;;;13.23;5.88;;;;;;;2.84;56.70;101460.03;5047629;28;20132;-96
2022/03/11 04:14:39;;;;;;;11.60;5.65;;;;;;;2.92;57.03;101474.94;5042956;28;20366;-93
2022/03/11 04:17:07;;;;;;;18.13;6.75;;;;;;;2.84;56.72;101462.66;5038669;28;20032;-96
2022/03/11 04:19:42;;;;;;;18.02;5.97;;;;;;;2.91;58.12;101469.84;5039826;28;20025;-96
2022/03/11 04:22:31;;;;;;;15.63;6.13;;;;;;;2.84;57.24;101462.66;5042374;28;20017;-94
2022/03/11 04:25:05;;;;;;;10.80;6.17;;;;;;;2.96;56.96;101480.66;5040089;28;20350;-95
2022/03/11 04:27:58;;;;;;;13.07;5.95;;;;;;;2.88;57.33;101474.53;5026210;28;20369;-96
2022/03/11 04:30:35;;;;;;;13.93;6.00;;;;;;;2.79;57.65;101465.06;5045017;28;20048;-96
2022/03/11 04:36:59;;;;;;;14.43;6.00;;;;;;;2.83;58.07;101461.03;5053694;28;20040;-95
2022/03/11 04:39:31;;;;;;;14.93;5.97;;;;;;;2.76;57.41;101451.41;5057136;28;20021;-94
2022/03/11 04:41:57;;;;;;;13.48;5.97;;;;;;;2.77;57.24;101464.44;5056535;28;20029;-93
2022/03/11 04:44:32;;;;;;;15.93;6.35;;;;;;;2.80;57.30;101453.47;5039387;28;20093;-94
2022/03/11 04:47:04;;;;;;;13.45;5.75;;;;;;;2.81;56.82;101454.28;5038776;28;20034;-95
2022/03/11 04:49:37;;;;;;;19.03;5.63;;;;;;;2.82;56.70;101448.78;5055856;28;20021;-95
2022/03/11 04:54:53;;;;;;;13.82;5.68;;;;;;;2.99;56.48;101464.41;5018822;28;20045;-95
2022/03/11 04:57:23;;;;;;;12.27;6.13;;;;;;;2.90;56.93;101460.28;5018169;28;20168;-95
2022/03/11 04:59:48;;;;;;;12.90;6.72;;;;;;;2.85;56.39;101458.19;5019353;28;20033;-95
2022/03/11 05:02:46;;;;;;;18.27;6.90;;;;;;;2.99;56.20;101465.25;5022767;28;20036;-95
2022/03/11 05:05:24;;;;;;;13.32;6.00;;;;;;;2.98;56.94;101468.06;5017915;28;20028;-95
2022/03/11 05:08:00;;;;;;;14.68;6.05;;;;;;;2.95;56.23;101449.91;5028903;28;20056;-96
2022/03/11 05:10:25;;;;;;;9.77;5.00;;;;;;;2.90;56.75;101444.38;5019215;28;20049;-95
2022/03/11 05:13:14;;;;;;;12.33;6.67;;;;;;;3.01;56.54;101463.19;5022217;28;20034;-96
2022/03/11 05:15:40;;;;;;;14.15;5.32;;;;;;;2.87;55.88;101435.81;5018116;28;20414;-95
2022/03/11 05:18:08;;;;;;;12.05;5.65;;;;;;;2.91;56.63;101435.44;5020538;28;20053;-96
2022/03/11 05:20:37;;;;;;;13.55;5.57;;;;;;;2.90;56.30;101436.44;5020434;28;20081;-94
2022/03/11 05:23:15;;;;;;;14.48;5.40;;;;;;;2.91;56.82;101438.91;5000513;28;20472;-96
2022/03/11 05:25:56;;;;;;;10.18;5.75;;;;;;;2.88;56.58;101436.63;5000941;28;20026;-96
2022/03/11 05:28:27;;;;;;;15.77;6.50;;;;;;;2.93;56.51;101441.34;5007824;28;20469;-96
2022/03/11 05:30:53;;;;;;;12.02;5.93;;;;;;;3.07;56.08;101444.91;5025523;28;20030;-96
2022/03/11 05:33:44;;;;;;;16.80;6.43;;;;;;;2.95;56.30;101432.22;5000280;28;20045;-96
2022/03/11 05:36:09;;;;;;;12.55;6.10;;;;;;;2.99;56.32;101436.13;4982922;28;20073;-96
2022/03/11 05:38:51;;;;;;;17.33;6.23;;;;;;;3.00;56.90;101427.16;5003966;28;20504;-96
2022/03/11 05:41:20;;;;;;;14.25;5.78;;;;;;;3.05;56.44;101429.22;4988895;28;20084;-95
2022/03/11 05:43:51;;;;;;;11.73;6.22;;;;;;;3.12;56.36;101430.06;5003579;28;20053;-95
2022/03/11 05:46:26;;;;;;;11.90;5.72;;;;;;;3.12;56.72;101432.72;5010927;28;20066;-96
2022/03/11 05:48:52;;;;;;;11.40;5.50;;;;;;;3.15;56.62;101448.25;5026624;28;20022;-95
2022/03/11 05:51:18;;;;;;;17.70;6.30;;;;;;;3.01;56.55;101425.31;5028424;28;20022;-96
2022/03/11 05:53:49;;;;;;;14.87;5.80;;;;;;;3.14;56.23;101440.50;5027050;28;20033;-96
2022/03/11 05:56:32;;;;;;;15.02;5.93;;;;;;;3.00;57.49;101427.16;5026639;28;20030;-96
2022/03/11 05:59:05;;;;;;;12.98;5.95;;;;;;;3.01;57.03;101420.03;5024680;28;20088;-94
2022/03/11 06:01:35;;;;;;;10.55;5.55;;;;;;;3.03;57.40;101429.41;5022726;28;20080;-96
2022/03/11 06:04:04;;;;;;;15.80;7.32;;;;;;;3.01;57.21;101433.25;5028507;28;20025;-94
2022/03/11 06:06:44;;;;;;;17.23;6.18;;;;;;;2.97;57.28;101418.78;5033231;28;20041;-96
2022/03/11 06:09:11;;;;;;;14.43;6.55;;;;;;;3.13;56.75;101426.41;5013212;28;20337;-96
2022/03/11 06:15:11;;;;;;;15.63;6.30;;;;;;;3.08;57.57;101430.66;5046770;28;20334;-96
2022/03/11 06:17:39;;;;;;;15.85;5.93;;;;;;;3.16;58.10;101431.34;5055455;28;20021;-96
2022/03/11 06:20:08;;;;;;;13.15;5.47;;;;;;;3.08;58.05;101426.19;5097691;23;20049;-94
2022/03/11 06:22:37;;;;;;;16.38;6.05;;;;;;;3.09;57.44;101427.00;5039403;28;20045;-95
2022/03/11 06:25:16;;;;;;;14.27;5.47;;;;;;;3.18;58.27;101441.75;5059935;28;20021;-95
2022/03/11 06:45:20;;;;;;;12.53;5.63;;;;;;;3.33;58.37;101441.63;5036571;28;20273;-93
2022/03/11 06:51:06;;;;;;;13.60;5.18;;;;;;;3.33;58.11;101412.50;5023188;28;20036;-94
2022/03/11 06:53:53;;;;;;;21.13;6.07;;;;;;;3.58;58.00;101436.69;5033355;28;20056;-94
2022/03/11 06:56:56;;;;;;;15.20;6.68;;;;;;;3.70;57.08;101439.59;5034700;28;20044;-93
2022/03/11 06:59:55;;;;;;;11.57;5.95;;;;;;;3.74;57.16;101446.16;5020002;28;20037;-93
2022/03/11 07:02:27;;;;;;;16.40;6.22;;;;;;;3.70;57.11;101423.69;5037719;28;20098;-93
2022/03/11 07:05:32;;;;;;;17.52;6.45;;;;;;;3.91;56.69;101443.16;5038767;28;20014;-93
2022/03/11 07:08:25;;;;;;;15.50;6.63;;;;;;;3.85;56.76;101417.41;5050357;28;20068;-93
2022/03/11 07:11:06;;;;;;;16.27;5.27;;;;;;;3.88;56.56;101414.38;4997934;28;20039;-94
2022/03/11 07:13:37;;;;;;;17.80;6.70;;;;;;;3.98;56.90;101425.44;4980681;28;20270;-94
2022/03/11 07:16:12;;;;;;;16.80;6.40;;;;;;;3.90;56.69;101399.09;5038114;28;20045;-93
2022/03/11 07:22:06;;;;;;;14.15;6.07;;;;;;;4.13;56.40;101412.00;4996713;28;20749;-93
2022/03/11 07:25:15;;;;;;;16.52;7.28;;;;;;;4.30;56.21;101425.72;4996376;28;20088;-93
2022/03/11 08:02:32;;;;;;;20.98;7.57;;;;;;;5.00;55.01;101395.34;5301761;23;20100;-94
2022/03/11 08:05:47;;;;;;;16.63;7.80;;;;;;;5.16;54.50;101404.69;5012762;28;20026;-93
2022/03/11 08:08:18;;;;;;;15.43;6.80;;;;;;;5.15;54.51;101387.13;5011053;28;20088;-93
2022/03/11 08:13:53;;;;;;;21.00;7.93;;;;;;;5.34;53.44;101380.13;5001337;23;20050;-93
2022/03/11 08:16:20;;;;;;;22.40;8.43;;;;;;;5.44;53.83;101383.16;4994080;28;20769;-93
2022/03/11 08:18:58;;;;;;;17.47;7.33;;;;;;;5.53;53.28;101388.25;4975620;28;20034;-93
2022/03/11 08:21:32;;;;;;;17.33;7.72;;;;;;;5.55;53.48;101388.88;4976412;28;20026;-92
2022/03/11 08:24:35;;;;;;;18.38;8.60;;;;;;;5.74;53.06;101389.81;4990789;28;20053;-94
2022/03/11 08:27:22;;;;;;;19.10;8.98;;;;;;;5.85;52.86;101394.44;4975883;28;20034;-94
2022/03/11 08:29:53;;;;;;;14.80;8.15;;;;;;;5.88;53.09;101386.03;4982654;28;20073;-93
2022/03/11 08:32:28;;;;;;;17.45;7.85;;;;;;;5.85;52.68;101367.03;4974247;28;20089;-94
2022/03/11 08:34:58;;;;;;;17.60;8.23;;;;;;;5.88;52.64;101370.09;4956790;28;20018;-93
2022/03/11 08:37:36;;;;;;;16.52;8.32;;;;;;;5.94;52.57;101370.28;4973885;28;20034;-93
2022/03/11 08:40:12;;;;;;;19.08;9.63;;;;;;;6.12;52.46;101374.91;4974081;28;20026;-93
2022/03/11 08:43:05;;;;;;;17.40;8.20;;;;;;;6.15;52.28;101371.81;4974260;28;20473;-93
2022/03/11 08:45:34;;;;;;;18.07;7.97;;;;;;;6.24;52.55;101378.53;4961240;28;20286;-94
2022/03/11 08:48:21;;;;;;;14.52;8.02;;;;;;;6.34;52.61;101383.38;4992768;28;20029;-93
2022/03/11 08:50:47;;;;;;;15.00;7.93;;;;;;;6.30;52.51;101376.84;5033043;22;20049;-94
2022/03/11 08:56:22;;;;;;;14.45;7.20;;;;;;;6.45;51.97;101361.38;4932009;29;20036;-94
2022/03/11 08:58:49;;;;;;;14.38;7.43;;;;;;;6.58;52.11;101378.25;4932918;29;20503;-94
2022/03/11 09:01:21;;;;;;;17.25;9.50;;;;;;;6.62;51.67;101371.47;4932541;29;20107;-93
2022/03/11 09:04:10;;;;;;;19.88;9.48;;;;;;;6.75;51.72;101373.22;4916021;29;20553;-95
2022/03/11 09:06:35;;;;;;;15.30;7.78;;;;;;;6.89;51.97;101371.25;4928089;29;20043;-94
2022/03/11 09:09:17;;;;;;;18.40;8.67;;;;;;;6.99;51.47;101365.41;4962412;23;20129;-93
2022/03/11 09:12:06;;;;;;;17.48;9.73;;;;;;;7.12;50.82;101362.59;5012875;28;20065;-93
2022/03/11 09:15:13;;;;;;;15.68;7.80;;;;;;;7.29;51.28;101376.19;4994700;28;20072;-94
2022/03/11 09:17:48;;;;;;;17.77;9.48;;;;;;;7.31;51.07;101354.63;5012851;28;20018;-93
2022/03/11 09:26:52;;;;;;;19.53;8.10;;;;;;;7.63;51.12;101357.09;5001983;28;20285;-93
2022/03/11 09:29:32;;;;;;;16.20;8.93;;;;;;;7.60;50.37;101331.69;4973483;28;20077;-93
2022/03/11 09:41:33;;;;;;;16.13;8.23;;;;;;;8.02;49.82;101349.59;5296594;23;20100;-93
2022/03/11 09:44:05;;;;;;;19.60;9.57;;;;;;;8.06;50.21;101342.75;5011793;28;20026;-95
2022/03/11 09:47:21;;;;;;;21.23;8.68;;;;;;;8.26;49.61;101344.31;4993261;28;20041;-93
2022/03/11 09:55:57;;;;;;;16.97;8.40;;;;;;;8.42;49.90;101334.81;4989783;28;20756;-93
2022/03/11 09:58:59;;;;;;;15.98;8.48;;;;;;;8.51;49.72;101324.63;4974379;28;20049;-93
2022/03/11 10:02:08;;;;;;;13.70;8.43;;;;;;;8.47;49.85;101298.38;4991980;28;20049;-91
2022/03/11 10:05:10;;;;;;;15.75;8.10;;;;;;;8.69;49.59;101315.69;4960417;29;20407;-92
2022/03/11 10:11:35;;;;;;;18.00;8.45;;;;;;;8.76;50.07;101306.50;4958812;28;20055;-91
2022/03/11 10:14:39;;;;;;;14.57;8.43;;;;;;;8.90;49.60;101301.75;4940761;29;20055;-92
2022/03/11 10:17:54;;;;;;;18.55;9.27;;;;;;;8.95;49.77;101287.66;4924009;29;20483;-92
2022/03/11 10:21:06;;;;;;;19.60;8.27;;;;;;;9.20;49.20;101284.69;5075110;23;20045;-93
2022/03/11 10:27:23;;;;;;;16.90;8.27;;;;;;;9.44;48.94;101287.31;5035683;28;20331;-93
2022/03/11 10:30:19;;;;;;;15.05;7.57;;;;;;;9.55;48.52;101291.78;5010182;28;20142;-92
2022/03/11 10:33:20;;;;;;;15.68;8.63;;;;;;;9.71;48.67;101273.31;5009444;28;20069;-94
2022/03/11 10:36:25;;;;;;;16.40;8.55;;;;;;;9.69;48.86;101270.91;5009960;28;20034;-93
2022/03/11 11:00:42;;;;;;;;;;;;;;;;;;;;;
2022/03/11 11:07:25;;;;;;;;;;;;;;;;;;;;;
2022/03/11 11:10:38;;;;;;;19.02;9.73;;;;;;;10.75;46.70;101249.75;4958748;28;20122;-92
2022/03/11 11:20:00;;;;;;;23.20;9.63;;;;;;;11.07;45.92;101221.44;5196611;23;20103;-93
2022/03/11 11:23:03;;;;;;;19.33;10.25;;;;;;;11.13;46.11;101235.72;4952732;29;20039;-91
2022/03/11 11:25:38;;;;;;;15.73;9.07;;;;;;;11.25;45.66;101232.88;4953787;29;20036;-93
2022/03/11 12:32:43;;;;;;;23.25;12.32;;;;;;;12.99;41.61;101132.16;5221653;23;22064;-91
2022/03/11 13:07:40;;;;;;;20.88;11.50;;;;;;;13.41;41.58;101079.22;5046524;28;20037;-92
2022/03/11 13:18:53;;;;;;;20.92;12.10;;;;;;;13.27;42.51;101062.78;4704742;23;20130;-92
2022/03/11 13:46:58;;;;;;;22.63;10.95;;;;;;;13.67;42.35;101055.75;5034389;28;20061;-92
2022/03/11 14:04:25;;;;;;;22.88;11.50;;;;;;;13.88;42.08;101031.44;5036422;23;20053;-92
2022/03/11 14:07:34;;;;;;;;;;;;;;;;;;;;;
2022/03/11 14:11:01;;;;;;;;;;;;;;;;;;;;;
2022/03/11 14:20:18;;;;;;;;;;;;;;;;;;;;;
2022/03/11 14:32:03;;;;;;;23.85;12.35;;;;;;;14.18;41.44;101021.63;5089971;23;20460;-92
2022/03/11 14:34:32;;;;;;;24.85;11.32;;;;;;;14.17;40.92;101001.16;5026741;23;20433;-93
2022/03/11 14:36:59;;;;;;;27.05;13.25;;;;;;;14.11;40.46;101000.38;5034417;28;20370;-93
2022/03/11 14:39:28;;;;;;;26.17;12.73;;;;;;;14.05;40.79;100991.53;4994052;28;20071;-92
2022/03/11 14:58:05;;;;;;;20.17;10.73;;;;;;;14.17;40.76;100993.06;4974008;28;20337;-93
2022/03/11 15:01:11;;;;;;;19.13;12.05;;;;;;;14.17;40.60;101009.25;4940445;29;20455;-91
2022/03/11 15:04:37;;;;;;;26.30;12.23;;;;;;;13.92;40.32;101000.19;4940175;29;20039;-93
2022/03/11 15:07:14;;;;;;;22.48;11.77;;;;;;;13.80;41.01;101000.50;5235349;23;20116;-92
2022/03/11 15:09:49;;;;;;;23.63;12.25;;;;;;;13.75;41.03;101003.22;5023221;28;20022;-91
2022/03/11 15:12:18;;;;;;;22.10;12.75;;;;;;;13.59;41.02;100989.81;5045537;28;20113;-92
2022/03/11 15:15:02;;;;;;;26.52;11.95;;;;;;;13.50;41.69;100996.81;5045479;28;20107;-91
2022/03/11 15:17:41;;;;;;;25.30;13.30;;;;;;;13.35;41.62;100994.94;5046943;23;20128;-91
2022/03/11 15:20:07;;;;;;;23.25;12.10;;;;;;;13.26;41.60;100993.91;5020282;28;20026;-92
2022/03/11 15:52:41;;;;;;;21.23;12.20;;;;;;;12.94;42.62;100998.50;5703921;23;20057;-92
2022/03/11 16:15:04;;;;;;;26.83;13.52;;;;;;;12.72;40.98;101004.13;5012585;28;20042;-92
2022/03/11 16:18:10;;;;;;;26.05;12.00;;;;;;;12.75;41.03;101013.53;4995280;28;20593;-91
2022/03/11 16:20:38;;;;;;;21.17;12.03;;;;;;;12.65;40.92;101000.91;4994914;28;20089;-92
2022/03/11 16:23:16;;;;;;;23.40;13.17;;;;;;;12.60;41.14;100998.22;4975968;28;20305;-91
2022/03/11 16:28:33;;;;;;;;;;;;;;;;;;;;;
2022/03/11 16:30:59;;;;;;;24.38;12.48;;;;;;;12.56;40.29;101014.06;5043870;28;20089;-92
2022/03/11 16:37:16;;;;;;;;;;;;;;;;;;;;;
2022/03/11 16:39:51;;;;;;;24.67;12.77;;;;;;;12.26;41.09;101008.34;5043830;28;20120;-91
2022/03/11 16:42:45;;;;;;;;;;;;;;;;;;;;;
2022/03/11 16:45:26;;;;;;;25.02;13.80;;;;;;;12.10;41.15;101010.19;5018565;28;20049;-93
2022/03/11 16:48:13;;;;;;;25.57;11.93;;;;;;;12.12;40.92;101026.03;5032352;28;20049;-92
2022/03/11 16:50:48;;;;;;;24.70;13.00;;;;;;;11.99;40.48;101013.09;5033175;28;20283;-93
2022/03/11 16:53:13;;;;;;;22.00;12.27;;;;;;;11.88;40.68;101007.63;5047226;28;20032;-91
2022/03/11 16:55:51;;;;;;;;;;;;;;;;;;;;;
2022/03/11 16:58:17;;;;;;;27.88;12.38;;;;;;;11.79;40.97;101033.38;5049089;28;20025;-93
2022/03/11 17:01:30;;;;;;;;;;;;;;;;;;;;;
2022/03/11 17:04:12;;;;;;;24.42;12.35;;;;;;;11.58;41.51;101025.22;5013624;28;20033;-92
2022/03/11 17:09:42;;;;;;;22.20;12.50;;;;;;;11.50;40.97;101034.56;5032773;28;20508;-92
2022/03/11 17:12:23;;;;;;;24.00;11.93;;;;;;;11.47;40.88;101037.75;5032670;28;20291;-92
2022/03/11 17:14:54;;;;;;;23.77;12.23;;;;;;;11.39;41.49;101040.94;5024546;28;20090;-92
2022/03/11 17:17:50;;;;;;;26.30;12.68;;;;;;;11.34;41.51;101052.44;5012436;28;20084;-92
2022/03/11 17:20:21;;;;;;;30.80;13.52;;;;;;;11.12;41.74;101047.16;5014486;28;20037;-92
2022/03/11 17:23:14;;;;;;;;;;;;;;;;;;;;;
2022/03/11 17:28:45;;;;;;;25.08;12.77;;;;;;;11.02;41.96;101044.41;5831364;23;20041;-92
2022/03/11 17:31:23;;;;;;;24.90;12.27;;;;;;;10.90;42.20;101042.69;5055116;28;20017;-94
2022/03/11 17:33:55;;;;;;;24.23;12.30;;;;;;;10.81;42.69;101046.91;5047252;28;20085;-92
2022/03/11 17:36:30;;;;;;;27.37;12.77;;;;;;;10.82;42.59;101055.75;5027609;28;20061;-95
2022/03/11 17:39:03;;;;;;;23.23;11.80;;;;;;;10.77;42.50;101048.47;5016032;28;20307;-94
2022/03/11 17:41:32;;;;;;;21.85;11.57;;;;;;;10.75;43.34;101062.13;4997397;28;20044;-94
2022/03/11 17:44:09;;;;;;;25.73;12.20;;;;;;;10.70;43.13;101066.63;5027836;28;20112;-94
2022/03/11 17:47:04;;;;;;;22.30;12.32;;;;;;;10.67;42.85;101049.19;5049448;22;20081;-94
2022/03/11 17:49:57;;;;;;;25.98;11.85;;;;;;;10.58;43.35;101056.06;5018523;28;20022;-94
2022/03/11 17:52:45;;;;;;;26.83;12.05;;;;;;;10.58;43.78;101061.44;5017740;28;20030;-94
2022/03/11 17:55:11;;;;;;;25.73;11.80;;;;;;;10.56;42.82;101069.69;5038467;23;20034;-93
2022/03/11 17:58:19;;;;;;;21.17;12.15;;;;;;;10.46;43.69;101058.88;5015238;28;20042;-94
2022/03/11 18:00:47;;;;;;;23.67;12.18;;;;;;;10.44;43.75;101061.78;5122125;23;20085;-94
2022/03/11 18:03:12;;;;;;;26.53;12.47;;;;;;;10.36;44.04;101059.53;5040883;28;20068;-94
2022/03/11 18:05:40;;;;;;;21.87;12.23;;;;;;;10.34;44.21;101060.84;5039343;28;20991;-94
2022/03/11 18:08:28;;;;;;;26.90;12.48;;;;;;;10.32;43.75;101055.75;5039210;28;20022;-95
2022/03/11 18:10:55;;;;;;;26.60;12.87;;;;;;;10.39;43.87;101069.78;4939545;29;20032;-94
2022/03/11 18:13:23;;;;;;;24.87;11.40;;;;;;;10.33;43.59;101070.75;4917492;29;20453;-94
2022/03/11 18:15:55;;;;;;;25.13;13.13;;;;;;;10.31;43.24;101054.13;4867513;29;20033;-94
2022/03/11 18:18:33;;;;;;;25.73;12.35;;;;;;;10.26;43.84;101067.44;4898594;29;20488;-94
2022/03/11 18:24:34;;;;;;;21.85;11.80;;;;;;;10.26;43.32;101070.13;4915449;29;20526;-95
2022/03/11 18:26:59;;;;;;;23.85;12.00;;;;;;;10.15;43.69;101070.00;4885140;29;20025;-94
2022/03/11 18:29:24;;;;;;;21.77;12.10;;;;;;;10.21;43.12;101070.88;4917007;29;20032;-95
2022/03/11 18:31:50;;;;;;;26.33;12.13;;;;;;;10.17;43.25;101072.44;4902096;29;20040;-95
2022/03/11 18:34:21;;;;;;;24.35;12.65;;;;;;;10.21;42.86;101075.44;4914270;29;20037;-94
2022/03/11 18:36:47;;;;;;;24.73;12.95;;;;;;;10.14;43.06;101073.75;4882660;29;20025;-94
2022/03/11 18:39:15;;;;;;;26.00;12.93;;;;;;;10.14;42.95;101073.75;4899256;29;20126;-95
2022/03/11 18:41:56;;;;;;;26.25;13.05;;;;;;;10.07;43.21;101067.75;4913762;29;20043;-95
2022/03/11 18:44:34;;;;;;;16.92;9.88;;;;;;;10.04;42.89;101056.75;4917883;29;20039;-95
2022/03/11 18:47:02;;;;;;;21.92;12.73;;;;;;;10.01;43.27;101058.06;4941744;28;20392;-94
2022/03/11 18:49:31;;;;;;;21.35;10.85;;;;;;;9.98;42.93;101069.25;5038138;28;20105;-94
2022/03/11 18:52:09;;;;;;;25.27;11.93;;;;;;;9.87;43.13;101067.47;5036206;28;20120;-95
2022/03/11 18:54:37;;;;;;;21.92;11.63;;;;;;;9.90;43.72;101072.34;5037124;28;20029;-94
2022/03/11 18:57:11;;;;;;;27.10;11.43;;;;;;;9.80;44.03;101076.50;5026234;28;20512;-94